sensor_id;sensor_type;location;lat;lon;timestamp;P1;durP1;ratioP1;P2;durP2;ratioP2
28459;SDS011;32528;45.712;9.192;2023-01-29T00:00:05;38.78;;;21.20;;
28459;SDS011;32528;45.712;9.192;2023-01-29T00:02:14;40.10;;;21.45;;
28459;SDS011;32528;45.712;9.192;2023-01-29T00:04:15;39.08;;;20.33;;
28459;SDS011;32528;45.712;9.192;2023-01-29T00:06:17;42.30;;;19.85;;
28459;SDS011;32528;45.712;9.192;2023-01-29T00:08:18;41.33;;;19.63;;
28459;SDS011;32528;45.712;9.192;2023-01-29T00:10:18;34.10;;;18.58;;
28459;SDS011;32528;45.712;9.192;2023-01-29T00:12:19;38.00;;;19.88;;
28459;SDS011;32528;45.712;9.192;2023-01-29T00:14:20;40.45;;;19.25;;
28459;SDS011;32528;45.712;9.192;2023-01-29T00:16:21;37.15;;;19.50;;
28459;SDS011;32528;45.712;9.192;2023-01-29T00:18:22;43.45;;;19.00;;
28459;SDS011;32528;45.712;9.192;2023-01-29T00:20:23;33.33;;;18.33;;
28459;SDS011;32528;45.712;9.192;2023-01-29T00:22:23;38.00;;;19.77;;
28459;SDS011;32528;45.712;9.192;2023-01-29T00:24:24;34.45;;;18.33;;
28459;SDS011;32528;45.712;9.192;2023-01-29T00:26:25;33.53;;;18.38;;
28459;SDS011;32528;45.712;9.192;2023-01-29T00:28:26;32.15;;;17.73;;
28459;SDS011;32528;45.712;9.192;2023-01-29T00:30:27;38.75;;;17.58;;
28459;SDS011;32528;45.712;9.192;2023-01-29T00:32:28;32.45;;;17.48;;
28459;SDS011;32528;45.712;9.192;2023-01-29T00:34:28;40.92;;;19.13;;
28459;SDS011;32528;45.712;9.192;2023-01-29T00:36:29;39.42;;;19.08;;
28459;SDS011;32528;45.712;9.192;2023-01-29T00:38:31;32.80;;;17.10;;
28459;SDS011;32528;45.712;9.192;2023-01-29T00:40:35;60.40;;;21.38;;
28459;SDS011;32528;45.712;9.192;2023-01-29T00:42:56;33.58;;;18.63;;
28459;SDS011;32528;45.712;9.192;2023-01-29T00:45:16;29.08;;;15.07;;
28459;SDS011;32528;45.712;9.192;2023-01-29T00:47:18;30.02;;;16.33;;
28459;SDS011;32528;45.712;9.192;2023-01-29T00:49:31;27.70;;;16.23;;
28459;SDS011;32528;45.712;9.192;2023-01-29T00:51:31;33.95;;;15.43;;
28459;SDS011;32528;45.712;9.192;2023-01-29T00:53:32;30.70;;;15.02;;
28459;SDS011;32528;45.712;9.192;2023-01-29T00:55:33;32.88;;;16.45;;
28459;SDS011;32528;45.712;9.192;2023-01-29T00:57:35;33.75;;;16.33;;
28459;SDS011;32528;45.712;9.192;2023-01-29T00:59:38;30.40;;;14.55;;
28459;SDS011;32528;45.712;9.192;2023-01-29T01:01:39;33.00;;;16.55;;
28459;SDS011;32528;45.712;9.192;2023-01-29T01:03:58;29.30;;;16.53;;
28459;SDS011;32528;45.712;9.192;2023-01-29T01:06:05;31.02;;;16.77;;
28459;SDS011;32528;45.712;9.192;2023-01-29T01:08:09;28.27;;;14.50;;
28459;SDS011;32528;45.712;9.192;2023-01-29T01:10:30;33.80;;;16.25;;
28459;SDS011;32528;45.712;9.192;2023-01-29T01:12:32;35.25;;;17.63;;
28459;SDS011;32528;45.712;9.192;2023-01-29T01:14:34;34.50;;;17.42;;
28459;SDS011;32528;45.712;9.192;2023-01-29T01:16:35;27.35;;;15.65;;
28459;SDS011;32528;45.712;9.192;2023-01-29T01:18:37;36.50;;;16.52;;
28459;SDS011;32528;45.712;9.192;2023-01-29T01:20:38;41.22;;;19.30;;
28459;SDS011;32528;45.712;9.192;2023-01-29T01:22:39;38.50;;;19.35;;
28459;SDS011;32528;45.712;9.192;2023-01-29T01:24:40;33.13;;;17.23;;
28459;SDS011;32528;45.712;9.192;2023-01-29T01:26:42;32.80;;;16.88;;
28459;SDS011;32528;45.712;9.192;2023-01-29T01:28:42;31.05;;;16.58;;
28459;SDS011;32528;45.712;9.192;2023-01-29T01:30:44;32.20;;;17.30;;
28459;SDS011;32528;45.712;9.192;2023-01-29T01:32:45;31.60;;;15.77;;
28459;SDS011;32528;45.712;9.192;2023-01-29T01:34:45;23.95;;;14.23;;
28459;SDS011;32528;45.712;9.192;2023-01-29T01:36:47;32.75;;;16.13;;
28459;SDS011;32528;45.712;9.192;2023-01-29T01:38:48;39.85;;;15.15;;
28459;SDS011;32528;45.712;9.192;2023-01-29T01:40:48;32.60;;;16.02;;
28459;SDS011;32528;45.712;9.192;2023-01-29T01:42:50;29.13;;;14.10;;
28459;SDS011;32528;45.712;9.192;2023-01-29T01:45:00;28.15;;;14.55;;
28459;SDS011;32528;45.712;9.192;2023-01-29T01:47:03;29.77;;;15.48;;
28459;SDS011;32528;45.712;9.192;2023-01-29T01:49:13;29.05;;;15.23;;
28459;SDS011;32528;45.712;9.192;2023-01-29T01:51:17;27.50;;;12.95;;
28459;SDS011;32528;45.712;9.192;2023-01-29T01:53:24;30.95;;;15.85;;
28459;SDS011;32528;45.712;9.192;2023-01-29T01:55:31;23.35;;;13.13;;
28459;SDS011;32528;45.712;9.192;2023-01-29T01:57:34;23.67;;;13.57;;
28459;SDS011;32528;45.712;9.192;2023-01-29T01:59:35;33.30;;;15.15;;
28459;SDS011;32528;45.712;9.192;2023-01-29T02:01:40;23.67;;;13.68;;
28459;SDS011;32528;45.712;9.192;2023-01-29T02:03:48;31.55;;;14.30;;
28459;SDS011;32528;45.712;9.192;2023-01-29T02:06:15;30.83;;;14.10;;
28459;SDS011;32528;45.712;9.192;2023-01-29T02:11:30;24.48;;;12.60;;
28459;SDS011;32528;45.712;9.192;2023-01-29T02:13:31;25.35;;;14.25;;
28459;SDS011;32528;45.712;9.192;2023-01-29T02:15:32;27.98;;;13.95;;
28459;SDS011;32528;45.712;9.192;2023-01-29T02:17:32;31.42;;;14.27;;
28459;SDS011;32528;45.712;9.192;2023-01-29T02:29:01;24.35;;;12.98;;
28459;SDS011;32528;45.712;9.192;2023-01-29T02:31:28;25.50;;;13.20;;
28459;SDS011;32528;45.712;9.192;2023-01-29T02:33:35;24.35;;;13.20;;
28459;SDS011;32528;45.712;9.192;2023-01-29T02:38:23;23.63;;;12.80;;
28459;SDS011;32528;45.712;9.192;2023-01-29T02:40:51;35.70;;;12.13;;
28459;SDS011;32528;45.712;9.192;2023-01-29T02:45:55;28.70;;;13.82;;
28459;SDS011;32528;45.712;9.192;2023-01-29T02:52:22;25.77;;;12.27;;
28459;SDS011;32528;45.712;9.192;2023-01-29T02:54:44;19.75;;;9.10;;
28459;SDS011;32528;45.712;9.192;2023-01-29T02:57:24;26.02;;;13.40;;
28459;SDS011;32528;45.712;9.192;2023-01-29T02:59:33;20.05;;;11.50;;
28459;SDS011;32528;45.712;9.192;2023-01-29T03:01:50;21.48;;;12.27;;
28459;SDS011;32528;45.712;9.192;2023-01-29T03:03:58;30.23;;;13.35;;
28459;SDS011;32528;45.712;9.192;2023-01-29T03:06:26;21.40;;;11.77;;
28459;SDS011;32528;45.712;9.192;2023-01-29T03:08:51;20.75;;;12.05;;
28459;SDS011;32528;45.712;9.192;2023-01-29T03:10:56;25.85;;;12.80;;
28459;SDS011;32528;45.712;9.192;2023-01-29T03:13:07;27.15;;;12.15;;
28459;SDS011;32528;45.712;9.192;2023-01-29T03:15:22;23.63;;;12.18;;
28459;SDS011;32528;45.712;9.192;2023-01-29T03:18:02;36.90;;;12.75;;
28459;SDS011;32528;45.712;9.192;2023-01-29T03:20:10;29.23;;;13.00;;
28459;SDS011;32528;45.712;9.192;2023-01-29T03:22:16;22.52;;;10.98;;
28459;SDS011;32528;45.712;9.192;2023-01-29T03:24:33;22.13;;;12.50;;
28459;SDS011;32528;45.712;9.192;2023-01-29T03:27:00;26.20;;;11.95;;
28459;SDS011;32528;45.712;9.192;2023-01-29T03:29:22;23.83;;;11.80;;
28459;SDS011;32528;45.712;9.192;2023-01-29T03:31:41;21.45;;;11.48;;
28459;SDS011;32528;45.712;9.192;2023-01-29T03:34:09;30.20;;;12.48;;
28459;SDS011;32528;45.712;9.192;2023-01-29T03:36:17;21.65;;;10.25;;
28459;SDS011;32528;45.712;9.192;2023-01-29T03:38:26;28.00;;;12.13;;
28459;SDS011;32528;45.712;9.192;2023-01-29T03:40:36;24.58;;;11.07;;
28459;SDS011;32528;45.712;9.192;2023-01-29T03:52:37;25.85;;;12.57;;
28459;SDS011;32528;45.712;9.192;2023-01-29T04:02:11;29.33;;;10.65;;
28459;SDS011;32528;45.712;9.192;2023-01-29T04:06:26;29.50;;;11.45;;
28459;SDS011;32528;45.712;9.192;2023-01-29T04:08:43;34.17;;;12.80;;
28459;SDS011;32528;45.712;9.192;2023-01-29T04:10:50;33.33;;;13.10;;
28459;SDS011;32528;45.712;9.192;2023-01-29T04:12:55;26.95;;;11.45;;
28459;SDS011;32528;45.712;9.192;2023-01-29T04:15:00;22.70;;;12.57;;
28459;SDS011;32528;45.712;9.192;2023-01-29T04:17:11;23.33;;;11.50;;
28459;SDS011;32528;45.712;9.192;2023-01-29T04:19:36;23.08;;;11.77;;
28459;SDS011;32528;45.712;9.192;2023-01-29T04:21:38;24.13;;;11.57;;
28459;SDS011;32528;45.712;9.192;2023-01-29T04:23:40;26.52;;;12.48;;
28459;SDS011;32528;45.712;9.192;2023-01-29T04:25:44;25.20;;;12.35;;
28459;SDS011;32528;45.712;9.192;2023-01-29T04:46:10;33.08;;;12.80;;
28459;SDS011;32528;45.712;9.192;2023-01-29T04:48:26;23.90;;;12.45;;
28459;SDS011;32528;45.712;9.192;2023-01-29T04:50:39;27.55;;;11.80;;
28459;SDS011;32528;45.712;9.192;2023-01-29T04:52:54;33.97;;;13.52;;
28459;SDS011;32528;45.712;9.192;2023-01-29T04:57:32;21.48;;;11.32;;
28459;SDS011;32528;45.712;9.192;2023-01-29T04:59:42;24.73;;;12.05;;
28459;SDS011;32528;45.712;9.192;2023-01-29T05:01:47;24.98;;;12.05;;
28459;SDS011;32528;45.712;9.192;2023-01-29T05:03:49;27.17;;;11.70;;
28459;SDS011;32528;45.712;9.192;2023-01-29T05:05:53;25.17;;;12.57;;
28459;SDS011;32528;45.712;9.192;2023-01-29T05:07:56;18.65;;;11.13;;
28459;SDS011;32528;45.712;9.192;2023-01-29T05:09:58;28.38;;;13.10;;
28459;SDS011;32528;45.712;9.192;2023-01-29T05:11:59;26.95;;;13.60;;
28459;SDS011;32528;45.712;9.192;2023-01-29T05:14:02;23.98;;;11.85;;
28459;SDS011;32528;45.712;9.192;2023-01-29T05:16:14;28.83;;;14.18;;
28459;SDS011;32528;45.712;9.192;2023-01-29T05:18:19;26.05;;;11.50;;
28459;SDS011;32528;45.712;9.192;2023-01-29T05:20:20;21.80;;;11.23;;
28459;SDS011;32528;45.712;9.192;2023-01-29T05:22:21;23.52;;;11.73;;
28459;SDS011;32528;45.712;9.192;2023-01-29T05:24:24;32.08;;;14.52;;
28459;SDS011;32528;45.712;9.192;2023-01-29T05:26:25;23.45;;;12.43;;
28459;SDS011;32528;45.712;9.192;2023-01-29T05:28:46;24.08;;;12.15;;
28459;SDS011;32528;45.712;9.192;2023-01-29T05:30:47;25.80;;;13.15;;
28459;SDS011;32528;45.712;9.192;2023-01-29T05:32:49;33.88;;;13.45;;
28459;SDS011;32528;45.712;9.192;2023-01-29T05:34:50;24.35;;;11.15;;
28459;SDS011;32528;45.712;9.192;2023-01-29T05:36:51;23.58;;;13.32;;
28459;SDS011;32528;45.712;9.192;2023-01-29T05:38:52;26.58;;;12.70;;
28459;SDS011;32528;45.712;9.192;2023-01-29T05:40:52;21.08;;;12.55;;
28459;SDS011;32528;45.712;9.192;2023-01-29T05:42:53;27.70;;;13.23;;
28459;SDS011;32528;45.712;9.192;2023-01-29T05:44:54;23.80;;;13.05;;
28459;SDS011;32528;45.712;9.192;2023-01-29T05:46:55;29.52;;;11.57;;
28459;SDS011;32528;45.712;9.192;2023-01-29T05:48:55;27.02;;;13.70;;
28459;SDS011;32528;45.712;9.192;2023-01-29T05:51:00;25.20;;;13.73;;
28459;SDS011;32528;45.712;9.192;2023-01-29T05:53:04;26.15;;;13.43;;
28459;SDS011;32528;45.712;9.192;2023-01-29T05:55:06;25.65;;;13.50;;
28459;SDS011;32528;45.712;9.192;2023-01-29T05:57:08;31.50;;;15.02;;
28459;SDS011;32528;45.712;9.192;2023-01-29T05:59:09;22.70;;;11.27;;
28459;SDS011;32528;45.712;9.192;2023-01-29T06:01:11;25.80;;;13.45;;
28459;SDS011;32528;45.712;9.192;2023-01-29T06:03:17;23.40;;;13.77;;
28459;SDS011;32528;45.712;9.192;2023-01-29T06:05:18;24.52;;;12.25;;
28459;SDS011;32528;45.712;9.192;2023-01-29T06:07:19;22.67;;;12.52;;
28459;SDS011;32528;45.712;9.192;2023-01-29T06:09:20;20.25;;;11.50;;
28459;SDS011;32528;45.712;9.192;2023-01-29T06:11:21;22.35;;;11.82;;
28459;SDS011;32528;45.712;9.192;2023-01-29T06:13:22;27.88;;;12.63;;
28459;SDS011;32528;45.712;9.192;2023-01-29T06:15:23;36.15;;;14.07;;
28459;SDS011;32528;45.712;9.192;2023-01-29T06:17:25;28.95;;;13.35;;
28459;SDS011;32528;45.712;9.192;2023-01-29T06:19:26;25.10;;;14.85;;
28459;SDS011;32528;45.712;9.192;2023-01-29T06:23:30;22.00;;;12.82;;
28459;SDS011;32528;45.712;9.192;2023-01-29T06:25:31;26.00;;;12.10;;
28459;SDS011;32528;45.712;9.192;2023-01-29T06:27:32;28.95;;;12.80;;
28459;SDS011;32528;45.712;9.192;2023-01-29T06:29:32;30.58;;;13.63;;
28459;SDS011;32528;45.712;9.192;2023-01-29T06:31:33;36.95;;;17.40;;
28459;SDS011;32528;45.712;9.192;2023-01-29T06:33:34;43.22;;;20.15;;
28459;SDS011;32528;45.712;9.192;2023-01-29T06:35:34;46.30;;;20.83;;
28459;SDS011;32528;45.712;9.192;2023-01-29T06:37:35;132.05;;;59.20;;
28459;SDS011;32528;45.712;9.192;2023-01-29T06:39:36;66.32;;;31.08;;
28459;SDS011;32528;45.712;9.192;2023-01-29T06:41:37;39.75;;;20.63;;
28459;SDS011;32528;45.712;9.192;2023-01-29T06:43:38;53.05;;;24.17;;
28459;SDS011;32528;45.712;9.192;2023-01-29T06:45:45;45.58;;;21.10;;
28459;SDS011;32528;45.712;9.192;2023-01-29T06:47:47;36.90;;;17.33;;
28459;SDS011;32528;45.712;9.192;2023-01-29T06:49:48;35.92;;;17.63;;
28459;SDS011;32528;45.712;9.192;2023-01-29T06:51:49;37.58;;;16.40;;
28459;SDS011;32528;45.712;9.192;2023-01-29T06:53:50;31.15;;;15.00;;
28459;SDS011;32528;45.712;9.192;2023-01-29T06:55:53;30.17;;;13.13;;
28459;SDS011;32528;45.712;9.192;2023-01-29T06:57:54;29.80;;;13.20;;
28459;SDS011;32528;45.712;9.192;2023-01-29T06:59:55;28.63;;;13.32;;
28459;SDS011;32528;45.712;9.192;2023-01-29T07:01:56;26.75;;;13.43;;
28459;SDS011;32528;45.712;9.192;2023-01-29T07:03:56;27.52;;;12.32;;
28459;SDS011;32528;45.712;9.192;2023-01-29T07:05:57;28.17;;;13.85;;
28459;SDS011;32528;45.712;9.192;2023-01-29T07:07:58;32.00;;;15.60;;
28459;SDS011;32528;45.712;9.192;2023-01-29T07:09:58;28.05;;;16.33;;
28459;SDS011;32528;45.712;9.192;2023-01-29T07:11:59;28.88;;;14.73;;
28459;SDS011;32528;45.712;9.192;2023-01-29T07:14:00;33.70;;;16.17;;
28459;SDS011;32528;45.712;9.192;2023-01-29T07:16:01;28.73;;;14.95;;
28459;SDS011;32528;45.712;9.192;2023-01-29T07:18:03;29.77;;;14.48;;
28459;SDS011;32528;45.712;9.192;2023-01-29T07:20:11;28.88;;;14.85;;
28459;SDS011;32528;45.712;9.192;2023-01-29T07:22:11;26.80;;;13.48;;
28459;SDS011;32528;45.712;9.192;2023-01-29T07:24:12;33.83;;;14.15;;
28459;SDS011;32528;45.712;9.192;2023-01-29T07:26:13;28.77;;;13.27;;
28459;SDS011;32528;45.712;9.192;2023-01-29T07:28:14;26.20;;;13.60;;
28459;SDS011;32528;45.712;9.192;2023-01-29T07:30:16;35.75;;;12.75;;
28459;SDS011;32528;45.712;9.192;2023-01-29T07:32:17;30.73;;;14.90;;
28459;SDS011;32528;45.712;9.192;2023-01-29T07:34:18;22.35;;;12.35;;
28459;SDS011;32528;45.712;9.192;2023-01-29T07:36:18;26.55;;;14.43;;
28459;SDS011;32528;45.712;9.192;2023-01-29T07:38:19;27.42;;;13.73;;
28459;SDS011;32528;45.712;9.192;2023-01-29T07:40:20;31.17;;;14.65;;
28459;SDS011;32528;45.712;9.192;2023-01-29T07:42:21;33.63;;;15.20;;
28459;SDS011;32528;45.712;9.192;2023-01-29T07:44:21;22.35;;;11.90;;
28459;SDS011;32528;45.712;9.192;2023-01-29T07:46:22;24.98;;;13.45;;
28459;SDS011;32528;45.712;9.192;2023-01-29T07:48:23;25.17;;;15.65;;
28459;SDS011;32528;45.712;9.192;2023-01-29T07:50:24;26.52;;;14.05;;
28459;SDS011;32528;45.712;9.192;2023-01-29T07:52:25;41.85;;;20.17;;
28459;SDS011;32528;45.712;9.192;2023-01-29T07:54:29;46.33;;;26.35;;
28459;SDS011;32528;45.712;9.192;2023-01-29T07:56:30;52.85;;;26.55;;
28459;SDS011;32528;45.712;9.192;2023-01-29T07:58:30;45.47;;;24.85;;
28459;SDS011;32528;45.712;9.192;2023-01-29T08:00:31;40.10;;;19.48;;
28459;SDS011;32528;45.712;9.192;2023-01-29T08:02:32;25.63;;;15.38;;
28459;SDS011;32528;45.712;9.192;2023-01-29T08:04:33;26.73;;;15.52;;
28459;SDS011;32528;45.712;9.192;2023-01-29T08:22:46;30.98;;;11.45;;
28459;SDS011;32528;45.712;9.192;2023-01-29T08:24:47;29.17;;;14.23;;
28459;SDS011;32528;45.712;9.192;2023-01-29T08:26:48;24.55;;;13.15;;
28459;SDS011;32528;45.712;9.192;2023-01-29T08:28:49;29.98;;;13.98;;
28459;SDS011;32528;45.712;9.192;2023-01-29T08:30:49;27.90;;;13.52;;
28459;SDS011;32528;45.712;9.192;2023-01-29T08:32:50;34.88;;;13.68;;
28459;SDS011;32528;45.712;9.192;2023-01-29T08:34:51;27.50;;;14.68;;
28459;SDS011;32528;45.712;9.192;2023-01-29T08:36:52;30.50;;;14.20;;
28459;SDS011;32528;45.712;9.192;2023-01-29T08:38:53;28.40;;;15.10;;
28459;SDS011;32528;45.712;9.192;2023-01-29T08:40:54;26.77;;;13.85;;
28459;SDS011;32528;45.712;9.192;2023-01-29T08:43:03;29.50;;;14.85;;
28459;SDS011;32528;45.712;9.192;2023-01-29T08:47:06;27.75;;;14.00;;
28459;SDS011;32528;45.712;9.192;2023-01-29T08:49:07;27.38;;;15.25;;
28459;SDS011;32528;45.712;9.192;2023-01-29T08:51:08;20.95;;;12.13;;
28459;SDS011;32528;45.712;9.192;2023-01-29T08:53:09;28.20;;;13.52;;
28459;SDS011;32528;45.712;9.192;2023-01-29T08:55:10;30.17;;;15.50;;
28459;SDS011;32528;45.712;9.192;2023-01-29T08:57:12;33.15;;;16.15;;
28459;SDS011;32528;45.712;9.192;2023-01-29T08:59:13;32.08;;;16.50;;
28459;SDS011;32528;45.712;9.192;2023-01-29T09:01:13;26.88;;;12.52;;
28459;SDS011;32528;45.712;9.192;2023-01-29T09:03:14;28.38;;;13.90;;
28459;SDS011;32528;45.712;9.192;2023-01-29T09:05:15;26.67;;;12.95;;
28459;SDS011;32528;45.712;9.192;2023-01-29T09:07:16;28.25;;;11.88;;
28459;SDS011;32528;45.712;9.192;2023-01-29T09:09:17;24.00;;;12.43;;
28459;SDS011;32528;45.712;9.192;2023-01-29T09:11:17;31.90;;;14.00;;
28459;SDS011;32528;45.712;9.192;2023-01-29T09:13:18;20.95;;;11.57;;
28459;SDS011;32528;45.712;9.192;2023-01-29T09:15:19;21.65;;;11.30;;
28459;SDS011;32528;45.712;9.192;2023-01-29T09:17:19;24.20;;;11.00;;
28459;SDS011;32528;45.712;9.192;2023-01-29T09:19:20;22.30;;;10.90;;
28459;SDS011;32528;45.712;9.192;2023-01-29T09:21:21;20.85;;;11.77;;
28459;SDS011;32528;45.712;9.192;2023-01-29T09:23:21;18.35;;;10.48;;
28459;SDS011;32528;45.712;9.192;2023-01-29T09:25:22;31.58;;;11.20;;
28459;SDS011;32528;45.712;9.192;2023-01-29T09:27:23;24.25;;;11.93;;
28459;SDS011;32528;45.712;9.192;2023-01-29T09:29:25;21.92;;;11.32;;
28459;SDS011;32528;45.712;9.192;2023-01-29T09:31:26;30.67;;;14.32;;
28459;SDS011;32528;45.712;9.192;2023-01-29T09:33:27;21.58;;;11.70;;
28459;SDS011;32528;45.712;9.192;2023-01-29T09:35:28;28.08;;;13.75;;
28459;SDS011;32528;45.712;9.192;2023-01-29T09:37:29;30.83;;;15.43;;
28459;SDS011;32528;45.712;9.192;2023-01-29T09:39:29;35.50;;;17.02;;
28459;SDS011;32528;45.712;9.192;2023-01-29T09:41:35;35.10;;;15.65;;
28459;SDS011;32528;45.712;9.192;2023-01-29T09:43:39;34.50;;;16.08;;
28459;SDS011;32528;45.712;9.192;2023-01-29T09:45:49;31.52;;;17.50;;
28459;SDS011;32528;45.712;9.192;2023-01-29T09:48:08;31.13;;;15.35;;
28459;SDS011;32528;45.712;9.192;2023-01-29T09:50:12;35.92;;;16.58;;
28459;SDS011;32528;45.712;9.192;2023-01-29T09:52:21;32.28;;;16.13;;
28459;SDS011;32528;45.712;9.192;2023-01-29T09:56:35;31.48;;;14.68;;
28459;SDS011;32528;45.712;9.192;2023-01-29T09:58:37;28.08;;;13.80;;
28459;SDS011;32528;45.712;9.192;2023-01-29T10:14:29;23.92;;;12.38;;
28459;SDS011;32528;45.712;9.192;2023-01-29T10:21:05;29.77;;;14.15;;
28459;SDS011;32528;45.712;9.192;2023-01-29T10:23:33;25.58;;;14.25;;
28459;SDS011;32528;45.712;9.192;2023-01-29T10:25:41;26.92;;;13.30;;
28459;SDS011;32528;45.712;9.192;2023-01-29T10:27:48;27.35;;;14.02;;
28459;SDS011;32528;45.712;9.192;2023-01-29T10:29:52;28.20;;;13.65;;
28459;SDS011;32528;45.712;9.192;2023-01-29T10:31:55;27.15;;;13.23;;
28459;SDS011;32528;45.712;9.192;2023-01-29T10:38:46;27.58;;;13.50;;
28459;SDS011;32528;45.712;9.192;2023-01-29T10:43:11;24.35;;;12.18;;
28459;SDS011;32528;45.712;9.192;2023-01-29T10:57:55;20.83;;;10.00;;
28459;SDS011;32528;45.712;9.192;2023-01-29T11:00:07;19.20;;;10.95;;
28459;SDS011;32528;45.712;9.192;2023-01-29T11:02:13;22.98;;;10.60;;
28459;SDS011;32528;45.712;9.192;2023-01-29T11:04:16;24.75;;;10.57;;
28459;SDS011;32528;45.712;9.192;2023-01-29T11:06:25;20.13;;;11.13;;
28459;SDS011;32528;45.712;9.192;2023-01-29T11:11:15;21.55;;;12.82;;
28459;SDS011;32528;45.712;9.192;2023-01-29T11:13:17;21.10;;;12.88;;
28459;SDS011;32528;45.712;9.192;2023-01-29T11:15:51;20.48;;;10.95;;
28459;SDS011;32528;45.712;9.192;2023-01-29T11:18:01;27.80;;;12.98;;
28459;SDS011;32528;45.712;9.192;2023-01-29T11:20:24;21.85;;;10.45;;
28459;SDS011;32528;45.712;9.192;2023-01-29T11:22:27;26.48;;;13.70;;
28459;SDS011;32528;45.712;9.192;2023-01-29T11:24:28;25.95;;;12.32;;
28459;SDS011;32528;45.712;9.192;2023-01-29T11:26:29;24.83;;;13.25;;
28459;SDS011;32528;45.712;9.192;2023-01-29T11:30:37;29.42;;;13.63;;
28459;SDS011;32528;45.712;9.192;2023-01-29T11:32:40;24.42;;;11.55;;
28459;SDS011;32528;45.712;9.192;2023-01-29T11:37:14;24.45;;;11.05;;
28459;SDS011;32528;45.712;9.192;2023-01-29T11:39:19;24.20;;;12.43;;
28459;SDS011;32528;45.712;9.192;2023-01-29T11:41:21;23.55;;;12.32;;
28459;SDS011;32528;45.712;9.192;2023-01-29T11:43:28;28.27;;;13.23;;
28459;SDS011;32528;45.712;9.192;2023-01-29T11:45:30;24.92;;;11.82;;
28459;SDS011;32528;45.712;9.192;2023-01-29T11:47:33;25.58;;;13.77;;
28459;SDS011;32528;45.712;9.192;2023-01-29T11:49:34;21.75;;;11.07;;
28459;SDS011;32528;45.712;9.192;2023-01-29T11:51:36;25.48;;;12.93;;
28459;SDS011;32528;45.712;9.192;2023-01-29T11:53:39;25.80;;;13.07;;
28459;SDS011;32528;45.712;9.192;2023-01-29T11:55:44;22.90;;;11.68;;
28459;SDS011;32528;45.712;9.192;2023-01-29T12:00:22;22.38;;;11.63;;
28459;SDS011;32528;45.712;9.192;2023-01-29T12:02:29;26.13;;;12.30;;
28459;SDS011;32528;45.712;9.192;2023-01-29T12:04:37;29.63;;;13.80;;
28459;SDS011;32528;45.712;9.192;2023-01-29T12:06:41;23.77;;;12.52;;
28459;SDS011;32528;45.712;9.192;2023-01-29T12:08:44;20.80;;;11.68;;
28459;SDS011;32528;45.712;9.192;2023-01-29T12:11:05;22.27;;;12.13;;
28459;SDS011;32528;45.712;9.192;2023-01-29T12:17:22;23.55;;;12.48;;
28459;SDS011;32528;45.712;9.192;2023-01-29T12:19:33;23.20;;;11.95;;
28459;SDS011;32528;45.712;9.192;2023-01-29T12:21:46;23.88;;;12.93;;
28459;SDS011;32528;45.712;9.192;2023-01-29T12:26:19;27.88;;;12.88;;
28459;SDS011;32528;45.712;9.192;2023-01-29T12:28:53;25.35;;;12.00;;
28459;SDS011;32528;45.712;9.192;2023-01-29T12:31:07;26.23;;;12.15;;
28459;SDS011;32528;45.712;9.192;2023-01-29T12:33:25;26.73;;;12.88;;
28459;SDS011;32528;45.712;9.192;2023-01-29T12:35:43;23.50;;;13.63;;
28459;SDS011;32528;45.712;9.192;2023-01-29T12:37:55;26.80;;;12.57;;
28459;SDS011;32528;45.712;9.192;2023-01-29T12:40:01;22.77;;;11.95;;
28459;SDS011;32528;45.712;9.192;2023-01-29T12:42:04;21.55;;;11.73;;
28459;SDS011;32528;45.712;9.192;2023-01-29T12:44:26;25.05;;;13.07;;
28459;SDS011;32528;45.712;9.192;2023-01-29T12:46:37;26.67;;;12.93;;
28459;SDS011;32528;45.712;9.192;2023-01-29T12:48:43;25.17;;;12.40;;
28459;SDS011;32528;45.712;9.192;2023-01-29T12:50:46;27.33;;;13.00;;
28459;SDS011;32528;45.712;9.192;2023-01-29T12:53:01;18.02;;;11.07;;
28459;SDS011;32528;45.712;9.192;2023-01-29T12:55:21;23.02;;;12.25;;
28459;SDS011;32528;45.712;9.192;2023-01-29T12:59:47;21.20;;;12.02;;
28459;SDS011;32528;45.712;9.192;2023-01-29T13:02:01;36.53;;;12.95;;
28459;SDS011;32528;45.712;9.192;2023-01-29T13:04:12;22.63;;;13.60;;
28459;SDS011;32528;45.712;9.192;2023-01-29T13:06:39;29.40;;;14.45;;
28459;SDS011;32528;45.712;9.192;2023-01-29T13:08:49;27.88;;;13.25;;
28459;SDS011;32528;45.712;9.192;2023-01-29T13:10:55;28.23;;;13.63;;
28459;SDS011;32528;45.712;9.192;2023-01-29T13:13:05;29.58;;;14.85;;
28459;SDS011;32528;45.712;9.192;2023-01-29T13:17:39;25.42;;;13.05;;
28459;SDS011;32528;45.712;9.192;2023-01-29T13:19:44;25.48;;;13.38;;
28459;SDS011;32528;45.712;9.192;2023-01-29T13:21:48;28.10;;;15.18;;
28459;SDS011;32528;45.712;9.192;2023-01-29T13:23:55;24.27;;;13.20;;
28459;SDS011;32528;45.712;9.192;2023-01-29T13:25:59;27.05;;;13.48;;
28459;SDS011;32528;45.712;9.192;2023-01-29T13:28:00;27.45;;;14.10;;
28459;SDS011;32528;45.712;9.192;2023-01-29T13:30:02;26.83;;;14.63;;
28459;SDS011;32528;45.712;9.192;2023-01-29T13:32:03;29.40;;;14.10;;
28459;SDS011;32528;45.712;9.192;2023-01-29T13:36:28;31.73;;;16.00;;
28459;SDS011;32528;45.712;9.192;2023-01-29T13:38:30;27.00;;;13.27;;
28459;SDS011;32528;45.712;9.192;2023-01-29T13:40:32;28.88;;;15.70;;
28459;SDS011;32528;45.712;9.192;2023-01-29T13:42:37;29.08;;;15.60;;
28459;SDS011;32528;45.712;9.192;2023-01-29T13:44:51;31.90;;;15.05;;
28459;SDS011;32528;45.712;9.192;2023-01-29T13:47:40;25.40;;;14.13;;
28459;SDS011;32528;45.712;9.192;2023-01-29T13:49:28;33.05;;;15.05;;
28459;SDS011;32528;45.712;9.192;2023-01-29T13:51:33;25.25;;;13.23;;
28459;SDS011;32528;45.712;9.192;2023-01-29T13:53:37;21.92;;;12.45;;
28459;SDS011;32528;45.712;9.192;2023-01-29T13:55:40;29.55;;;15.45;;
28459;SDS011;32528;45.712;9.192;2023-01-29T14:03:55;27.88;;;15.15;;
28459;SDS011;32528;45.712;9.192;2023-01-29T14:05:57;30.30;;;15.80;;
28459;SDS011;32528;45.712;9.192;2023-01-29T14:08:00;23.98;;;13.10;;
28459;SDS011;32528;45.712;9.192;2023-01-29T14:16:47;30.60;;;16.13;;
28459;SDS011;32528;45.712;9.192;2023-01-29T14:18:54;33.30;;;16.95;;
28459;SDS011;32528;45.712;9.192;2023-01-29T14:21:05;27.75;;;14.77;;
28459;SDS011;32528;45.712;9.192;2023-01-29T14:25:40;32.00;;;17.35;;
28459;SDS011;32528;45.712;9.192;2023-01-29T14:27:41;37.05;;;19.40;;
28459;SDS011;32528;45.712;9.192;2023-01-29T14:29:47;38.80;;;18.40;;
28459;SDS011;32528;45.712;9.192;2023-01-29T14:34:01;34.67;;;16.73;;
28459;SDS011;32528;45.712;9.192;2023-01-29T14:36:10;30.95;;;15.32;;
28459;SDS011;32528;45.712;9.192;2023-01-29T14:38:13;33.63;;;15.25;;
28459;SDS011;32528;45.712;9.192;2023-01-29T14:42:21;37.05;;;18.17;;
28459;SDS011;32528;45.712;9.192;2023-01-29T14:46:44;39.85;;;18.25;;
28459;SDS011;32528;45.712;9.192;2023-01-29T14:48:45;32.35;;;17.88;;
28459;SDS011;32528;45.712;9.192;2023-01-29T14:50:48;33.20;;;17.85;;
28459;SDS011;32528;45.712;9.192;2023-01-29T14:52:50;38.70;;;17.45;;
28459;SDS011;32528;45.712;9.192;2023-01-29T14:54:56;31.58;;;16.65;;
28459;SDS011;32528;45.712;9.192;2023-01-29T14:57:02;28.27;;;14.80;;
28459;SDS011;32528;45.712;9.192;2023-01-29T15:02:13;33.53;;;16.52;;
28459;SDS011;32528;45.712;9.192;2023-01-29T15:04:25;32.85;;;16.40;;